Time;durP1;ratioP1;P1;durP2;ratioP2;P2;SDS_P1;SDS_P2;PMS_P1;PMS_P2;Temp;Humidity;BMP_temperature;BMP_pressure;BME280_temperature;BME280_humidity;BME280_pressure;Samples;Min_cycle;Max_cycle;Signal;HPM_P1;HPM_P2
2022/12/22 03:26:19;;;;;;;195.95;54.88;;;;;;;8.29;100.00;100075.66;4978349;28;20520;-53
2022/12/22 03:28:45;;;;;;;262.23;56.55;;;;;;;8.33;100.00;100090.34;4993174;28;20042;-55
2022/12/22 03:31:11;;;;;;;206.82;55.33;;;;;;;8.00;100.00;100021.56;4993197;28;20034;-55
2022/12/22 03:33:36;;;;;;;181.25;51.40;;;;;;;8.31;100.00;100069.44;4992960;28;20041;-53
2022/12/22 03:36:02;;;;;;;204.77;52.63;;;;;;;8.33;100.00;100059.75;4993007;28;20034;-55
2022/12/22 03:38:28;;;;;;;204.48;53.42;;;;;;;8.23;100.00;100058.31;4992614;28;20030;-56
2022/12/22 03:40:53;;;;;;;207.48;54.13;;;;;;;8.32;100.00;100076.38;4975130;28;20037;-53
2022/12/22 03:46:28;;;;;;;170.52;51.22;;;;;;;8.33;100.00;100074.63;4993113;28;20054;-51
2022/12/22 03:49:11;;;;;;;189.65;52.42;;;;;;;8.19;100.00;100051.50;4992433;28;20046;-52
2022/12/22 03:51:45;;;;;;;186.77;51.08;;;;;;;8.33;100.00;100085.13;4977165;28;20068;-50
2022/12/22 03:54:13;;;;;;;208.93;53.10;;;;;;;7.98;100.00;100017.28;4975362;28;20034;-55
2022/12/22 03:56:39;;;;;;;199.80;54.50;;;;;;;8.32;100.00;100086.00;4992678;28;20100;-55
2022/12/22 03:59:05;;;;;;;188.70;52.20;;;;;;;8.35;100.00;100097.25;4975285;28;20129;-54
2022/12/22 04:01:31;;;;;;;186.82;51.72;;;;;;;8.34;100.00;100095.56;4992592;28;20046;-54
2022/12/22 04:03:56;;;;;;;207.80;54.65;;;;;;;8.32;100.00;100083.38;4975230;28;20617;-56
2022/12/22 04:06:22;;;;;;;190.70;51.83;;;;;;;8.35;100.00;100093.78;4992735;28;20154;-53
2022/12/22 04:08:47;;;;;;;205.48;55.17;;;;;;;8.34;100.00;100092.09;4975335;28;20113;-54
2022/12/22 04:13:58;;;;;;;194.20;52.78;;;;;;;8.19;100.00;100080.31;4992807;28;20077;-54
2022/12/22 04:16:24;;;;;;;167.70;50.10;;;;;;;8.03;100.00;100042.44;4992526;28;20030;-52
2022/12/22 04:18:49;;;;;;;157.65;49.97;;;;;;;8.30;100.00;100088.69;4992871;28;20057;-53
2022/12/22 04:21:15;;;;;;;150.80;48.80;;;;;;;8.41;100.00;100096.19;4992547;28;20401;-55
2022/12/22 04:23:40;;;;;;;146.15;47.50;;;;;;;8.42;100.00;100100.53;4975231;28;20030;-58
2022/12/22 04:26:06;;;;;;;154.60;47.63;;;;;;;8.39;100.00;100105.88;4992339;28;20058;-54
2022/12/22 04:28:31;;;;;;;127.13;45.72;;;;;;;8.36;100.00;100103.38;4975076;28;20037;-55
2022/12/22 04:30:57;;;;;;;134.68;46.38;;;;;;;8.34;100.00;100105.19;4975075;28;20473;-54
2022/12/22 04:33:22;;;;;;;133.98;44.97;;;;;;;8.34;100.00;100103.44;4975115;28;20378;-55
2022/12/22 04:35:47;;;;;;;143.13;45.13;;;;;;;7.82;100.00;100028.28;4992520;28;20034;-55
2022/12/22 04:38:13;;;;;;;147.30;45.67;;;;;;;7.86;100.00;100040.41;4974883;28;20034;-55
2022/12/22 04:40:38;;;;;;;129.45;44.50;;;;;;;7.84;100.00;100043.97;4992371;28;20122;-55
2022/12/22 04:43:03;;;;;;;132.70;43.42;;;;;;;8.23;100.00;100096.81;4992825;28;20062;-55
2022/12/22 04:45:29;;;;;;;139.15;44.42;;;;;;;8.12;100.00;100093.69;4992441;28;20065;-56
2022/12/22 04:47:54;;;;;;;145.73;43.17;;;;;;;7.77;100.00;100039.84;4992436;28;20045;-51
2022/12/22 04:50:19;;;;;;;151.48;44.30;;;;;;;8.03;100.00;100099.22;4992104;28;20042;-54
2022/12/22 04:52:45;;;;;;;200.52;45.42;;;;;;;8.02;100.00;100101.03;4992061;28;20034;-56
2022/12/22 04:55:10;;;;;;;162.55;40.25;;;;;;;7.92;100.00;100091.75;4974919;28;20042;-53
2022/12/22 04:57:35;;;;;;;202.82;41.20;;;;;;;8.01;100.00;100117.63;4974768;28;20046;-55
2022/12/22 05:00:02;;;;;;;186.65;40.28;;;;;;;7.97;100.00;100121.25;4992319;28;20489;-53
2022/12/22 05:02:27;;;;;;;262.75;43.08;;;;;;;7.90;100.00;100122.38;4974614;28;20121;-53
2022/12/22 05:04:52;;;;;;;246.75;42.65;;;;;;;7.93;100.00;100153.72;4992075;28;20170;-53
2022/12/22 05:07:19;;;;;;;192.40;33.30;;;;;;;7.88;100.00;100134.69;4992145;28;20121;-56
2022/12/22 05:09:44;;;;;;;167.15;30.83;;;;;;;7.51;100.00;100073.88;4976603;28;20465;-52
2022/12/22 05:14:54;;;;;;;182.20;28.13;;;;;;;7.42;100.00;100085.50;4995647;28;20188;-52
2022/12/22 05:17:19;;;;;;;195.80;28.38;;;;;;;7.71;100.00;100145.69;4995687;28;20113;-56
2022/12/22 05:19:44;;;;;;;138.57;25.65;;;;;;;7.36;100.00;100099.66;4978184;28;20043;-52
2022/12/22 05:22:10;;;;;;;183.32;28.08;;;;;;;7.53;100.00;100124.47;4978034;28;20071;-56
2022/12/22 05:24:35;;;;;;;169.90;26.00;;;;;;;7.66;100.00;100159.84;4995004;28;20042;-54
2022/12/22 05:27:00;;;;;;;153.82;25.92;;;;;;;7.55;100.00;100144.47;4995292;28;20121;-55
2022/12/22 05:29:26;;;;;;;154.93;26.55;;;;;;;7.52;100.00;100133.22;4977835;28;20038;-54
2022/12/22 05:31:51;;;;;;;194.15;29.13;;;;;;;7.58;100.00;100144.38;4995138;28;20041;-54
2022/12/22 05:34:16;;;;;;;189.95;29.35;;;;;;;7.17;100.00;100082.81;4977719;28;20077;-54
2022/12/22 05:36:42;;;;;;;223.20;30.65;;;;;;;7.61;100.00;100164.38;4994930;28;20034;-54
2022/12/22 05:39:07;;;;;;;175.25;29.20;;;;;;;7.13;100.00;100073.31;4995097;28;20042;-53
2022/12/22 05:41:32;;;;;;;173.32;29.40;;;;;;;7.17;100.00;100074.97;4994915;28;20038;-55
2022/12/22 05:43:57;;;;;;;163.80;29.70;;;;;;;7.55;100.00;100144.47;4994918;28;20038;-54
2022/12/22 05:46:23;;;;;;;210.10;32.63;;;;;;;7.09;100.00;100079.53;4995199;28;20062;-51
2022/12/22 05:48:48;;;;;;;155.02;27.80;;;;;;;7.53;100.00;100166.38;4994712;28;20125;-54
2022/12/22 05:51:13;;;;;;;193.52;30.10;;;;;;;7.49;100.00;100164.75;4977336;28;20038;-52
2022/12/22 05:53:39;;;;;;;220.57;31.92;;;;;;;7.49;100.00;100163.00;4994537;28;20038;-54
2022/12/22 05:56:06;;;;;;;228.05;34.38;;;;;;;7.50;100.00;100172.53;4994735;28;20125;-53
2022/12/22 05:58:31;;;;;;;263.92;35.95;;;;;;;7.09;100.00;100102.28;4994945;28;20455;-54
2022/12/22 06:00:58;;;;;;;155.98;32.05;;;;;;;7.03;100.00;100102.44;4994816;28;20073;-53
2022/12/22 06:03:27;;;;;;;146.90;31.55;;;;;;;7.04;100.00;100102.38;4976988;28;20034;-61
2022/12/22 06:05:53;;;;;;;120.10;31.25;;;;;;;7.42;100.00;100181.53;4994425;28;20042;-55
2022/12/22 06:08:18;;;;;;;149.98;32.83;;;;;;;7.06;100.00;100126.78;4976941;28;20033;-52
2022/12/22 06:10:43;;;;;;;164.25;35.67;;;;;;;7.30;100.00;100185.38;4994137;28;20039;-53
2022/12/22 06:13:09;;;;;;;123.13;32.47;;;;;;;7.16;100.00;100177.94;4994204;28;20040;-54
2022/12/22 06:15:34;;;;;;;156.93;35.45;;;;;;;7.19;100.00;100187.44;4994097;28;20038;-54
2022/12/22 06:17:59;;;;;;;187.02;36.60;;;;;;;6.69;100.00;100128.69;4994223;28;20121;-54
2022/12/22 06:20:25;;;;;;;153.43;35.22;;;;;;;6.99;100.00;100195.00;4994265;28;20129;-51
2022/12/22 06:22:50;;;;;;;294.13;42.97;;;;;;;6.97;100.00;100191.59;4994009;28;20137;-54
2022/12/22 06:25:15;;;;;;;336.13;44.60;;;;;;;6.85;100.00;100192.78;4993868;28;20058;-55
2022/12/22 06:27:41;;;;;;;230.00;38.42;;;;;;;6.43;100.00;100129.41;4994219;28;20038;-52
2022/12/22 06:30:07;;;;;;;143.00;32.20;;;;;;;6.71;100.00;100198.38;4994105;28;20524;-55
2022/12/22 06:32:36;;;;;;;108.15;30.27;;;;;;;6.77;100.00;100215.69;4993907;28;20038;-54
2022/12/22 06:35:01;;;;;;;86.07;28.10;;;;;;;6.69;100.00;100212.38;4993946;28;20034;-54
2022/12/22 06:37:26;;;;;;;66.03;24.08;;;;;;;6.38;100.00;100148.75;4993999;28;20042;-55
2022/12/22 06:39:52;;;;;;;63.05;22.08;;;;;;;6.44;100.00;100164.25;4993759;28;20038;-55
2022/12/22 06:45:01;;;;;;;63.17;21.48;;;;;;;6.78;100.00;100225.22;4993789;28;20531;-54
2022/12/22 06:47:26;;;;;;;55.95;19.45;;;;;;;6.80;100.00;100231.25;4994231;28;20034;-55
2022/12/22 06:49:51;;;;;;;52.78;19.85;;;;;;;6.76;100.00;100222.66;4993585;28;20085;-55
2022/12/22 06:52:17;;;;;;;51.33;18.27;;;;;;;6.76;100.00;100237.50;4993350;28;20069;-51
2022/12/22 06:54:42;;;;;;;57.75;19.02;;;;;;;6.73;100.00;100238.44;4993469;28;20035;-55
2022/12/22 06:57:07;;;;;;;48.08;17.40;;;;;;;6.70;100.00;100235.03;4993655;28;20540;-55
2022/12/22 06:59:33;;;;;;;40.05;17.90;;;;;;;6.67;100.00;100235.97;4993372;28;20035;-54
2022/12/22 07:01:58;;;;;;;51.78;18.70;;;;;;;6.25;100.00;100163.03;4975801;28;20041;-54
2022/12/22 07:04:24;;;;;;;42.15;17.20;;;;;;;6.59;100.00;100234.47;4992946;28;20094;-51
2022/12/22 07:06:49;;;;;;;46.33;18.20;;;;;;;6.51;100.00;100244.28;4976113;28;20513;-51
2022/12/22 07:09:14;;;;;;;39.70;17.00;;;;;;;6.27;100.00;100216.97;4993401;28;20034;-61
2022/12/22 07:11:40;;;;;;;44.58;17.42;;;;;;;5.88;100.00;100177.00;4975682;28;20030;-65
2022/12/22 07:14:05;;;;;;;41.88;15.80;;;;;;;6.25;100.00;100264.97;4975869;28;20057;-64
2022/12/22 07:16:31;;;;;;;43.45;16.73;;;;;;;6.06;100.00;100251.47;4993084;28;20034;-61
2022/12/22 07:18:56;;;;;;;47.65;17.00;;;;;;;5.63;100.00;100187.09;4993110;28;20030;-63
2022/12/22 07:21:21;;;;;;;41.90;14.68;;;;;;;6.00;100.00;100256.81;4993119;28;20441;-62
2022/12/22 07:23:47;;;;;;;33.80;13.60;;;;;;;5.54;100.00;100189.06;4992947;28;20076;-64
2022/12/22 07:26:14;;;;;;;33.35;14.13;;;;;;;5.97;100.00;100272.56;4992687;28;20047;-63
2022/12/22 07:28:40;;;;;;;35.75;12.63;;;;;;;5.55;100.00;100196.84;4993145;28;20038;-63
2022/12/22 07:31:07;;;;;;;37.38;14.63;;;;;;;5.54;100.00;100207.34;4975521;28;20038;-64
2022/12/22 07:33:32;;;;;;;36.42;13.05;;;;;;;5.44;100.00;100216.25;4992444;28;20540;-62
2022/12/22 07:36:03;;;;;;;45.08;14.88;;;;;;;5.77;100.00;100288.66;4992681;28;20042;-64
2022/12/22 07:38:31;;;;;;;36.75;13.98;;;;;;;5.69;100.00;100295.78;4993083;28;20088;-64
2022/12/22 07:40:58;;;;;;;34.67;14.65;;;;;;;5.19;100.00;100197.66;4992994;28;20034;-62
2022/12/22 07:43:23;;;;;;;43.10;13.05;;;;;;;5.69;100.00;100309.69;4992956;28;20034;-64
2022/12/22 07:45:49;;;;;;;40.55;15.02;;;;;;;5.66;100.00;100314.97;4994055;28;20111;-60
2022/12/22 07:51:02;;;;;;;30.63;13.93;;;;;;;5.47;100.00;100290.16;4995439;28;20050;-63
2022/12/22 07:53:28;;;;;;;37.78;13.65;;;;;;;5.52;100.00;100293.50;4993775;28;20404;-61
2022/12/22 07:55:53;;;;;;;46.75;14.90;;;;;;;5.50;100.00;100297.06;4976758;28;20042;-62
2022/12/22 07:58:19;;;;;;;37.08;14.02;;;;;;;5.47;100.00;100291.88;4975970;28;20042;-63
2022/12/22 08:00:45;;;;;;;34.38;13.95;;;;;;;5.16;100.00;100249.03;4975105;28;20038;-64
2022/12/22 08:03:10;;;;;;;31.25;13.30;;;;;;;5.51;100.00;100309.22;4975216;28;20044;-64
2022/12/22 08:05:36;;;;;;;33.88;13.95;;;;;;;5.48;100.00;100298.84;4992876;28;20042;-65
2022/12/22 08:08:01;;;;;;;32.88;13.88;;;;;;;5.28;100.00;100270.53;4975090;28;20051;-65
2022/12/22 08:10:27;;;;;;;37.85;14.18;;;;;;;5.20;100.00;100263.72;4975170;28;20046;-62
2022/12/22 08:12:52;;;;;;;41.30;14.30;;;;;;;5.51;100.00;100332.72;4992668;28;20121;-62
2022/12/22 08:15:17;;;;;;;37.67;13.80;;;;;;;5.54;100.00;100348.31;4992504;28;20561;-61
2022/12/22 08:17:43;;;;;;;34.30;14.23;;;;;;;5.16;100.00;100296.00;4992374;28;20097;-63
2022/12/22 08:20:08;;;;;;;32.63;13.73;;;;;;;5.16;100.00;100285.56;4992539;28;20030;-60
2022/12/22 08:22:34;;;;;;;31.48;14.02;;;;;;;5.58;100.00;100370.84;4992398;28;20053;-62
2022/12/22 08:24:59;;;;;;;27.95;13.15;;;;;;;5.61;100.00;100369.03;4974831;28;20129;-62
2022/12/22 08:27:29;;;;;;;35.75;12.85;;;;;;;5.68;100.00;100372.41;4992390;28;20041;-62
2022/12/22 08:29:58;;;;;;;29.85;12.93;;;;;;;5.71;100.00;100367.13;4990958;28;20077;-61
2022/12/22 08:32:23;;;;;;;30.13;12.80;;;;;;;5.71;100.00;100369.72;4992321;28;20033;-64
2022/12/22 08:34:51;;;;;;;33.00;13.63;;;;;;;5.73;100.00;100369.69;4991987;28;20038;-62
2022/12/22 08:37:19;;;;;;;36.90;12.10;;;;;;;5.60;100.00;100354.25;4973743;28;20046;-63
2022/12/22 08:39:49;;;;;;;29.55;12.85;;;;;;;5.72;100.00;100375.81;4993388;28;20052;-64
2022/12/22 08:42:16;;;;;;;34.17;14.13;;;;;;;5.37;100.00;100295.59;4991166;28;20536;-65
2022/12/22 08:44:41;;;;;;;31.52;13.38;;;;;;;5.54;100.00;100310.03;4975609;28;20038;-65
2022/12/22 08:47:07;;;;;;;39.03;13.82;;;;;;;5.86;100.00;100381.66;4994545;28;20101;-62
2022/12/22 08:49:33;;;;;;;37.15;13.52;;;;;;;5.85;100.00;100392.94;4994970;28;20405;-63
2022/12/22 08:51:59;;;;;;;28.20;12.13;;;;;;;5.85;100.00;100393.84;4995160;28;20042;-65
2022/12/22 08:54:24;;;;;;;41.58;14.05;;;;;;;5.34;100.00;100321.75;4994918;28;20477;-63
2022/12/22 08:56:50;;;;;;;38.97;14.63;;;;;;;5.39;100.00;100346.00;4994946;28;20070;-63
2022/12/22 08:59:15;;;;;;;37.60;14.95;;;;;;;5.59;100.00;100385.63;4994326;28;20046;-64
2022/12/22 09:01:43;;;;;;;31.30;14.25;;;;;;;5.63;100.00;100397.75;4994887;28;20400;-66
2022/12/22 09:04:09;;;;;;;32.75;15.02;;;;;;;5.69;100.00;100406.31;4994637;28;20122;-65
2022/12/22 09:06:34;;;;;;;32.42;15.30;;;;;;;5.40;100.00;100345.13;4977257;28;20045;-63
2022/12/22 09:09:02;;;;;;;31.50;13.43;;;;;;;5.54;100.00;100350.94;4994601;28;20030;-65
2022/12/22 09:11:28;;;;;;;28.92;14.95;;;;;;;5.46;100.00;100335.41;4994650;28;20076;-64
2022/12/22 09:13:55;;;;;;;31.85;16.08;;;;;;;5.49;100.00;100335.34;4993758;28;20070;-67
2022/12/22 09:16:22;;;;;;;30.10;14.65;;;;;;;5.95;100.00;100399.75;4992932;28;20034;-64
2022/12/22 09:18:48;;;;;;;26.15;14.93;;;;;;;5.68;100.00;100325.41;4975516;28;20030;-62
2022/12/22 09:21:14;;;;;;;27.45;13.57;;;;;;;5.68;100.00;100322.78;4976976;28;20042;-64
2022/12/22 09:23:39;;;;;;;18.02;12.50;;;;;;;6.17;100.00;100398.41;4994422;28;20046;-62
2022/12/22 09:26:07;;;;;;;29.55;12.65;;;;;;;6.27;100.00;100402.53;4994020;28;20046;-62
2022/12/22 09:28:32;;;;;;;30.73;12.38;;;;;;;5.55;100.00;100274.31;4976479;28;20035;-60
2022/12/22 09:30:58;;;;;;;27.10;12.02;;;;;;;6.27;100.00;100383.38;4994036;28;20042;-66
2022/12/22 09:33:25;;;;;;;22.92;11.90;;;;;;;6.07;100.00;100336.78;4976157;28;20114;-65
2022/12/22 09:35:50;;;;;;;26.75;12.57;;;;;;;6.45;100.00;100407.34;4976180;28;20196;-61
2022/12/22 09:38:16;;;;;;;29.00;14.90;;;;;;;6.01;100.00;100350.00;4993987;28;20113;-65
2022/12/22 09:40:41;;;;;;;34.58;17.70;;;;;;;6.00;100.00;100338.66;4994079;28;20053;-63
2022/12/22 09:43:11;;;;;;;31.48;19.48;;;;;;;6.35;100.00;100404.97;4976261;28;20086;-63
2022/12/22 09:45:36;;;;;;;42.75;20.38;;;;;;;6.10;100.00;100355.84;4976277;28;20061;-61
2022/12/22 09:48:02;;;;;;;33.58;19.27;;;;;;;6.37;100.00;100411.03;4993622;28;20124;-66
2022/12/22 09:50:29;;;;;;;29.95;17.67;;;;;;;6.47;100.00;100415.16;4993457;28;20169;-63
2022/12/22 09:53:00;;;;;;;31.20;15.13;;;;;;;6.61;100.00;100428.78;4976226;28;20541;-63
2022/12/22 09:55:55;;;;;;;25.98;14.90;;;;;;;6.72;100.00;100434.63;4992883;28;20069;-64
2022/12/22 09:58:24;;;;;;;33.83;16.10;;;;;;;6.75;100.00;100440.66;4975796;28;20042;-64
2022/12/22 10:00:54;;;;;;;22.52;13.80;;;;;;;6.44;100.00;100378.63;4993291;28;20125;-63
2022/12/22 10:03:30;;;;;;;31.63;15.32;;;;;;;6.87;100.00;100441.25;4993412;28;20113;-64
2022/12/22 10:06:18;;;;;;;20.83;14.07;;;;;;;6.79;100.00;100416.16;4975512;28;20034;-61
2022/12/22 10:08:43;;;;;;;25.90;15.25;;;;;;;6.88;100.00;100438.63;4975931;28;20034;-62
2022/12/22 10:11:13;;;;;;;25.13;14.10;;;;;;;6.91;100.00;100435.94;4993256;28;20116;-62
2022/12/22 10:13:39;;;;;;;21.48;13.45;;;;;;;6.53;100.00;100360.13;4993220;28;20096;-61
2022/12/22 10:16:25;;;;;;;28.92;14.18;;;;;;;6.59;100.00;100373.06;4992943;28;20474;-62
2022/12/22 10:19:08;;;;;;;21.98;12.52;;;;;;;6.99;100.00;100439.22;4993032;28;20101;-63
2022/12/22 10:21:34;;;;;;;26.77;13.18;;;;;;;7.16;100.00;100447.50;4958451;28;20053;-65
2022/12/22 10:23:59;;;;;;;22.90;11.77;;;;;;;7.21;100.00;100450.88;4973361;28;20042;-62
2022/12/22 10:26:27;;;;;;;24.83;12.60;;;;;;;7.25;100.00;100454.28;4974012;28;20054;-64
2022/12/22 10:28:57;;;;;;;28.60;12.90;;;;;;;7.31;100.00;100449.75;4974447;28;20046;-66
2022/12/22 10:31:28;;;;;;;20.20;10.98;;;;;;;7.04;100.00;100395.47;4975503;28;20030;-63
2022/12/22 10:33:56;;;;;;;23.60;10.05;;;;;;;7.35;100.00;100440.06;4992870;28;20030;-62
2022/12/22 10:36:30;;;;;;;17.15;9.15;;;;;;;6.99;100.00;100360.72;4992759;28;20045;-63
2022/12/22 10:39:05;;;;;;;17.48;9.85;;;;;;;7.53;100.00;100457.06;4974880;28;20462;-62
2022/12/22 10:41:35;;;;;;;18.15;10.82;;;;;;;7.23;100.00;100391.50;4992392;28;20049;-65
2022/12/22 10:44:05;;;;;;;23.52;11.15;;;;;;;7.64;100.00;100449.78;4992594;28;20106;-64
2022/12/22 10:46:33;;;;;;;18.80;10.48;;;;;;;7.71;100.00;100457.44;4992736;28;20065;-63
2022/12/22 10:49:34;;;;;;;18.15;10.52;;;;;;;7.80;100.00;100451.94;4992972;28;20084;-62
2022/12/22 10:52:19;;;;;;;23.03;11.03;;;;;;;7.80;100.00;100453.69;4989604;28;20100;-64
2022/12/22 10:54:45;;;;;;;17.27;10.23;;;;;;;7.78;100.00;100458.13;4974675;28;20057;-64
2022/12/22 10:57:13;;;;;;;16.20;9.63;;;;;;;7.76;100.00;100468.63;4974534;28;20389;-62
2022/12/22 10:59:52;;;;;;;18.17;11.10;;;;;;;7.75;100.00;100463.44;4992122;28;20039;-64
2022/12/22 11:02:20;;;;;;;17.95;11.27;;;;;;;7.77;100.00;100467.75;4992296;28;20023;-62
2022/12/22 11:04:46;;;;;;;17.55;10.52;;;;;;;7.58;100.00;100402.81;4992529;28;20061;-62
2022/12/22 11:07:11;;;;;;;20.85;10.50;;;;;;;7.79;100.00;100423.19;4990952;28;20104;-64
2022/12/22 11:09:37;;;;;;;18.40;10.18;;;;;;;8.18;100.00;100478.84;4974413;28;20026;-66
2022/12/22 11:12:12;;;;;;;15.52;9.52;;;;;;;8.22;100.00;100464.75;4991968;28;20457;-62
2022/12/22 11:14:59;;;;;;;15.40;10.25;;;;;;;7.79;100.00;100413.53;4974239;28;20089;-66
2022/12/22 11:18:03;;;;;;;17.63;10.48;;;;;;;8.15;100.00;100482.41;4974165;28;20034;-63
2022/12/22 11:20:28;;;;;;;18.17;12.25;;;;;;;7.96;100.00;100477.75;4950698;28;20051;-66
2022/12/22 11:23:39;;;;;;;26.00;14.63;;;;;;;7.91;100.00;100483.94;4991119;28;20779;-65
2022/12/22 11:26:08;;;;;;;22.23;14.38;;;;;;;7.78;100.00;100494.81;4946954;28;20474;-62
2022/12/22 11:29:04;;;;;;;22.45;14.88;;;;;;;7.81;100.00;100495.59;4970508;28;20113;-65
2022/12/22 11:31:41;;;;;;;26.13;16.83;;;;;;;7.77;100.00;100498.31;4971117;28;20172;-65
2022/12/22 11:34:44;;;;;;;25.00;15.27;;;;;;;7.61;100.00;100499.63;4972311;28;20541;-64
2022/12/22 11:37:34;;;;;;;29.25;14.68;;;;;;;6.69;100.00;100380.63;4972124;28;20045;-61
2022/12/22 11:40:18;;;;;;;31.98;17.10;;;;;;;7.31;100.00;100490.78;4970536;28;20026;-62
2022/12/22 11:42:54;;;;;;;35.65;16.08;;;;;;;7.26;100.00;100490.03;4971504;28;20174;-63
2022/12/22 11:45:39;;;;;;;28.35;14.68;;;;;;;7.11;100.00;100482.56;4954982;28;20030;-62
2022/12/22 11:48:29;;;;;;;35.10;15.48;;;;;;;6.59;100.00;100404.44;4970636;28;20035;-64
2022/12/22 11:51:07;;;;;;;36.42;16.10;;;;;;;7.10;100.00;100486.91;4972344;28;20038;-61
2022/12/22 11:53:55;;;;;;;38.80;17.27;;;;;;;6.69;100.00;100395.47;4970208;28;20039;-62
2022/12/22 11:56:31;;;;;;;40.00;16.60;;;;;;;7.09;100.00;100473.88;4970584;28;20039;-65
2022/12/22 11:59:19;;;;;;;38.63;17.55;;;;;;;7.10;100.00;100473.84;4970468;28;20058;-64
2022/12/22 12:02:16;;;;;;;34.95;16.08;;;;;;;7.10;100.00;100452.03;4970056;28;20053;-62
2022/12/22 12:05:00;;;;;;;29.17;13.90;;;;;;;7.11;100.00;100459.88;4971773;28;20109;-62
2022/12/22 12:07:44;;;;;;;29.70;14.25;;;;;;;7.17;100.00;100454.47;4972157;28;20114;-64
2022/12/22 12:10:22;;;;;;;30.85;13.93;;;;;;;6.77;100.00;100385.72;4971105;28;20482;-62
2022/12/22 12:13:00;;;;;;;29.38;15.70;;;;;;;7.14;100.00;100449.31;4971442;28;20076;-63
2022/12/22 12:15:30;;;;;;;30.60;15.73;;;;;;;6.71;100.00;100384.06;4972359;28;20041;-63
2022/12/22 12:18:22;;;;;;;31.07;16.57;;;;;;;6.64;100.00;100368.56;4971778;28;20563;-63
2022/12/22 12:20:57;;;;;;;28.38;16.85;;;;;;;7.16;100.00;100441.41;4976092;28;20030;-65
2022/12/22 12:23:44;;;;;;;26.48;16.27;;;;;;;7.17;100.00;100444.00;4975759;28;20038;-62
2022/12/22 12:26:23;;;;;;;32.65;17.52;;;;;;;7.23;100.00;100453.47;4988933;28;20096;-65
2022/12/22 12:29:04;;;;;;;28.77;18.17;;;;;;;7.17;100.00;100444.00;4994908;28;20069;-64
2022/12/22 12:31:33;;;;;;;31.48;19.30;;;;;;;7.30;100.00;100442.78;4994215;28;20034;-63
2022/12/22 12:34:00;;;;;;;32.85;18.83;;;;;;;7.29;100.00;100437.63;4993321;28;20035;-65
2022/12/22 12:36:42;;;;;;;31.80;19.42;;;;;;;6.95;100.00;100368.66;4977061;28;20441;-64
2022/12/22 12:39:07;;;;;;;;;;;;;;;7.43;100.00;100434.63;4978117;28;20114;-64
2022/12/22 12:41:40;;;;;;;29.03;18.30;;;;;;;7.22;100.00;100400.25;4995185;28;20021;-65
2022/12/22 12:44:11;;;;;;;32.35;20.13;;;;;;;7.46;100.00;100435.41;4961399;28;20296;-64
2022/12/22 12:46:39;;;;;;;36.22;23.02;;;;;;;7.49;100.00;100431.84;4977850;28;20077;-62
2022/12/22 12:49:04;;;;;;;29.98;21.35;;;;;;;7.18;100.00;100372.41;4994613;28;20038;-62
2022/12/22 12:52:09;;;;;;;30.48;21.27;;;;;;;7.62;100.00;100425.38;4977740;28;20440;-63
2022/12/22 12:54:37;;;;;;;37.20;24.27;;;;;;;7.28;100.00;100360.81;4965005;28;20073;-63
2022/12/22 12:57:05;;;;;;;35.35;21.85;;;;;;;7.70;100.00;100428.66;4994620;28;20117;-65
2022/12/22 12:59:40;;;;;;;32.72;22.27;;;;;;;7.68;100.00;100435.69;4994254;28;20084;-62
2022/12/22 13:02:27;;;;;;;37.03;23.85;;;;;;;7.75;100.00;100432.00;4994724;28;20441;-64
2022/12/22 13:05:14;;;;;;;32.30;22.98;;;;;;;7.72;100.00;100424.25;4994872;28;20065;-60
2022/12/22 13:08:04;;;;;;;32.60;22.65;;;;;;;7.74;100.00;100412.81;4994622;28;20050;-64
2022/12/22 13:10:31;;;;;;;34.38;22.95;;;;;;;7.73;100.00;100400.63;4976796;28;20460;-63
2022/12/22 13:12:59;;;;;;;41.03;24.38;;;;;;;7.88;100.00;100401.97;4977119;28;20061;-64
2022/12/22 13:15:30;;;;;;;35.28;25.10;;;;;;;7.86;100.00;100403.75;4994616;28;20038;-64
2022/12/22 13:17:56;;;;;;;;;;;;;;;7.95;100.00;100406.13;4977239;28;20080;-63
2022/12/22 13:20:40;;;;;;;35.67;23.20;;;;;;;7.42;100.00;100309.81;4994143;28;20352;-62
2022/12/22 13:23:13;;;;;;;33.55;23.92;;;;;;;7.40;100.00;100309.03;4976690;28;20093;-63
2022/12/22 13:25:41;;;;;;;34.05;25.13;;;;;;;7.93;100.00;100394.81;4993371;28;20073;-63
2022/12/22 13:28:13;;;;;;;34.42;23.85;;;;;;;7.53;100.00;100318.28;4959825;28;20511;-63
2022/12/22 13:30:39;;;;;;;36.08;22.75;;;;;;;8.01;100.00;100371.88;4975576;28;20042;-62
2022/12/22 13:33:09;;;;;;;33.58;23.33;;;;;;;8.12;100.00;100382.88;4993894;28;20385;-62
2022/12/22 13:35:40;;;;;;;36.03;23.45;;;;;;;7.64;100.00;100284.78;4976421;28;20030;-64
2022/12/22 13:38:05;;;;;;;36.57;24.87;;;;;;;8.20;100.00;100369.56;4974516;28;20488;-64
2022/12/22 13:40:39;;;;;;;35.00;23.92;;;;;;;8.30;100.00;100355.28;4975258;28;20030;-62
2022/12/22 13:43:11;;;;;;;32.53;23.75;;;;;;;8.37;100.00;100367.31;4975171;28;20026;-63
2022/12/22 13:45:40;;;;;;;35.67;23.75;;;;;;;8.36;100.00;100358.59;4992759;28;20038;-60
2022/12/22 13:48:11;;;;;;;36.05;23.15;;;;;;;8.51;100.00;100370.38;4975530;28;20045;-64
2022/12/22 13:50:37;;;;;;;;;;;;;;;8.60;100.00;100363.97;4976185;28;20394;-62
2022/12/22 13:53:06;;;;;;;33.55;22.63;;;;;;;8.55;100.00;100345.78;4993317;28;19922;-61
2022/12/22 13:55:32;;;;;;;35.13;22.80;;;;;;;8.67;100.00;100355.84;4994001;28;20113;-60
2022/12/22 13:58:04;;;;;;;34.05;22.50;;;;;;;8.28;100.00;100302.06;4993672;28;20719;-60
2022/12/22 14:00:30;;;;;;;33.88;22.90;;;;;;;8.12;100.00;100291.13;4976299;28;20049;-60
2022/12/22 14:02:55;;;;;;;36.83;24.67;;;;;;;8.05;100.00;100297.50;4993472;28;20038;-61
2022/12/22 14:05:20;;;;;;;34.05;22.98;;;;;;;8.37;100.00;100357.69;4975977;28;20038;-62
2022/12/22 14:08:03;;;;;;;39.88;23.38;;;;;;;7.95;100.00;100290.81;4993396;28;20069;-62
2022/12/22 14:10:38;;;;;;;32.83;24.10;;;;;;;8.20;100.00;100346.81;4993647;28;20052;-61
2022/12/22 14:13:06;;;;;;;39.83;25.55;;;;;;;7.74;100.00;100280.94;4975774;28;20058;-62
2022/12/22 14:15:32;;;;;;;35.00;24.50;;;;;;;8.07;100.00;100327.13;5007627;28;20034;-60
2022/12/22 14:17:57;;;;;;;36.85;25.58;;;;;;;7.92;100.00;100293.50;4996757;28;20388;-63
2022/12/22 14:20:34;;;;;;;37.88;25.52;;;;;;;8.06;100.00;100322.78;5006651;28;20073;-61
2022/12/22 14:23:33;;;;;;;39.40;26.92;;;;;;;8.06;100.00;100325.41;5004703;28;20032;-62
2022/12/22 14:26:00;;;;;;;43.67;26.55;;;;;;;8.06;100.00;100327.16;4964020;28;20555;-62
2022/12/22 14:28:31;;;;;;;41.50;28.33;;;;;;;8.06;100.00;100324.53;4988905;28;20077;-61
2022/12/22 14:30:59;;;;;;;40.53;28.08;;;;;;;7.89;100.00;100297.09;5004131;28;20025;-63
2022/12/22 14:33:28;;;;;;;38.90;26.75;;;;;;;8.04;100.00;100324.59;4997080;28;20490;-62
2022/12/22 14:36:14;;;;;;;38.53;26.95;;;;;;;8.01;100.00;100306.34;4973169;28;20038;-62
2022/12/22 14:38:46;;;;;;;44.05;26.70;;;;;;;7.98;100.00;100319.53;4956471;28;20405;-63
2022/12/22 14:44:03;;;;;;;39.17;27.75;;;;;;;7.89;100.00;100302.31;4973843;28;20077;-61
2022/12/22 14:46:30;;;;;;;40.10;27.63;;;;;;;7.79;100.00;100273.84;4973681;28;20067;-62
2022/12/22 14:48:57;;;;;;;40.15;27.63;;;;;;;7.93;100.00;100305.72;4972665;28;20455;-62
2022/12/22 14:51:22;;;;;;;43.83;28.85;;;;;;;7.60;100.00;100239.47;4972631;28;20031;-62
2022/12/22 14:53:56;;;;;;;44.25;27.65;;;;;;;7.51;100.00;100234.50;4972526;28;20109;-61
2022/12/22 14:56:22;;;;;;;42.58;28.27;;;;;;;7.77;100.00;100284.34;4974191;28;20077;-59
2022/12/22 14:58:48;;;;;;;42.85;29.02;;;;;;;7.66;100.00;100264.63;4974175;28;20109;-62
2022/12/22 15:01:29;;;;;;;47.10;30.88;;;;;;;7.84;100.00;100299.00;4972331;28;20045;-61